createdAt,value
2019-04-16T00:00:57.202Z,13.73
2019-04-16T00:03:25.251Z,11.90
2019-04-16T00:06:04.007Z,13.10
2019-04-16T00:08:36.334Z,11.47
2019-04-16T00:11:06.019Z,12.13
2019-04-16T00:13:35.715Z,14.30
2019-04-16T00:16:03.950Z,13.27
2019-04-16T00:18:32.024Z,12.53
2019-04-16T00:21:19.646Z,12.67
2019-04-16T00:23:58.387Z,15.33
2019-04-16T00:26:27.465Z,11.57
2019-04-16T00:29:01.676Z,13.10
2019-04-16T00:31:28.222Z,11.57
2019-04-16T00:33:56.265Z,12.00
2019-04-16T00:36:24.305Z,13.43
2019-04-16T00:38:54.157Z,12.97
2019-04-16T00:41:22.127Z,15.97
2019-04-16T00:43:50.179Z,13.63
2019-04-16T00:46:18.301Z,12.47
2019-04-16T00:48:46.343Z,10.63
2019-04-16T00:51:14.418Z,13.70
2019-04-16T00:53:42.463Z,12.20
2019-04-16T00:56:10.521Z,12.00
2019-04-16T00:58:38.558Z,10.47
2019-04-16T01:01:06.605Z,13.07
2019-04-16T01:03:34.694Z,11.83
2019-04-16T01:06:06.783Z,10.17
2019-04-16T01:08:32.537Z,11.03
2019-04-16T01:11:00.585Z,12.97
2019-04-16T01:13:28.628Z,13.93
2019-04-16T01:15:56.847Z,12.43
2019-04-16T01:18:24.885Z,10.93
2019-04-16T01:20:52.932Z,12.80
2019-04-16T01:23:20.996Z,10.77
2019-04-16T01:25:49.102Z,11.07
2019-04-16T01:28:18.794Z,10.27
2019-04-16T01:30:54.560Z,12.27
2019-04-16T01:33:33.002Z,10.53
2019-04-16T01:36:02.693Z,12.73
2019-04-16T01:38:35.361Z,10.80
2019-04-16T01:41:05.067Z,12.57
2019-04-16T01:43:33.105Z,10.20
2019-04-16T01:46:02.277Z,9.30
2019-04-16T01:48:30.802Z,11.20
2019-04-16T01:50:58.846Z,11.67
2019-04-16T01:53:26.945Z,11.50
2019-04-16T01:55:57.154Z,19.00
2019-04-16T01:58:24.766Z,10.67
2019-04-16T02:00:52.803Z,11.10
2019-04-16T02:03:20.886Z,12.77
2019-04-16T02:05:48.948Z,11.43
2019-04-16T02:08:16.986Z,14.63
2019-04-16T02:10:45.038Z,12.53
2019-04-16T02:13:14.975Z,9.83
2019-04-16T02:15:42.886Z,11.53
2019-04-16T02:18:10.952Z,13.40
2019-04-16T02:20:39.649Z,11.37
2019-04-16T02:23:07.710Z,10.47
2019-04-16T02:25:35.838Z,10.63
2019-04-16T02:28:03.906Z,10.77
2019-04-16T02:30:37.552Z,10.67
2019-04-16T02:33:01.818Z,10.43
2019-04-16T02:35:29.890Z,10.30
2019-04-16T02:37:57.931Z,13.70
2019-04-16T02:40:25.979Z,12.90
2019-04-16T02:42:54.049Z,9.30
2019-04-16T02:45:23.464Z,9.23
2019-04-16T02:47:51.867Z,11.33
2019-04-16T02:50:21.563Z,12.70
2019-04-16T02:52:57.102Z,12.93
2019-04-16T02:55:26.788Z,11.47
2019-04-16T02:58:02.547Z,14.33
2019-04-16T03:00:37.970Z,9.77
2019-04-16T03:03:07.662Z,12.00
2019-04-16T03:05:37.420Z,10.73
2019-04-16T03:08:05.965Z,13.10
2019-04-16T03:10:34.246Z,12.47
2019-04-16T03:13:02.370Z,10.77
2019-04-16T03:15:40.975Z,17.40
2019-04-16T03:18:11.690Z,11.87
2019-04-16T03:20:39.170Z,12.60
2019-04-16T03:23:07.230Z,12.47
2019-04-16T03:25:35.277Z,11.03
2019-04-16T03:28:03.325Z,10.97
2019-04-16T03:30:40.320Z,10.10
2019-04-16T03:33:10.181Z,13.97
2019-04-16T03:35:30.926Z,11.83
2019-04-16T03:38:01.601Z,11.83
2019-04-16T03:40:28.741Z,10.20
2019-04-16T03:42:59.259Z,12.67
2019-04-16T03:45:26.616Z,12.10
2019-04-16T03:47:54.671Z,19.43
2019-04-16T03:50:22.735Z,12.07
2019-04-16T03:52:50.783Z,11.63
2019-04-16T03:55:18.835Z,10.17
2019-04-16T03:57:46.898Z,9.10
2019-04-16T04:00:15.304Z,11.53
2019-04-16T04:02:43.363Z,12.13
2019-04-16T04:05:11.424Z,12.20
2019-04-16T04:07:43.881Z,10.87
2019-04-16T04:10:09.290Z,9.27
2019-04-16T04:12:37.368Z,13.30
2019-04-16T04:15:05.991Z,11.93
2019-04-16T04:17:35.692Z,14.50
2019-04-16T04:20:05.656Z,13.17
2019-04-16T04:22:33.766Z,12.43
2019-04-16T04:25:04.272Z,10.67
2019-04-16T04:27:31.575Z,9.87
2019-04-16T04:29:59.662Z,10.47
2019-04-16T04:32:27.702Z,11.27
2019-04-16T04:34:55.760Z,10.73
2019-04-16T04:37:23.886Z,12.03
2019-04-16T04:39:51.937Z,8.17
2019-04-16T04:42:19.989Z,12.17
2019-04-16T04:44:48.106Z,9.90
2019-04-16T04:47:19.391Z,12.70
2019-04-16T04:49:45.946Z,12.63
2019-04-16T04:52:15.153Z,11.80
2019-04-16T04:54:43.328Z,13.73
2019-04-16T04:57:11.389Z,10.50
2019-04-16T04:59:39.561Z,13.20
2019-04-16T05:02:07.594Z,10.10
2019-04-16T05:04:45.870Z,11.90
2019-04-16T05:07:15.562Z,13.23
2019-04-16T05:09:43.645Z,11.50
2019-04-16T05:12:11.686Z,11.40
2019-04-16T05:14:41.363Z,12.43
2019-04-16T05:17:09.421Z,8.50
2019-04-16T05:19:37.469Z,10.03
2019-04-16T05:22:05.541Z,12.53
2019-04-16T05:24:33.592Z,13.27
2019-04-16T05:27:02.303Z,10.43
2019-04-16T05:29:31.759Z,10.80
2019-04-16T05:31:59.758Z,11.73
2019-04-16T05:34:27.854Z,15.43
2019-04-16T05:36:55.951Z,11.37
2019-04-16T05:39:24.351Z,12.43
2019-04-16T05:41:53.779Z,10.63
2019-04-16T05:44:21.822Z,10.20
2019-04-16T05:46:49.898Z,11.37
2019-04-16T05:49:17.942Z,10.67
2019-04-16T05:51:45.992Z,11.60
2019-04-16T05:54:15.766Z,12.03
2019-04-16T05:56:48.469Z,9.83
2019-04-16T05:59:16.562Z,11.47
2019-04-16T06:01:46.300Z,11.37
2019-04-16T06:04:14.452Z,12.07
2019-04-16T06:06:42.478Z,10.60
2019-04-16T06:09:12.248Z,11.97
2019-04-16T06:11:40.298Z,11.57
2019-04-16T06:14:27.813Z,11.17
2019-04-16T06:17:00.416Z,11.87
2019-04-16T06:19:30.154Z,12.77
2019-04-16T06:21:59.842Z,12.40
2019-04-16T06:24:35.146Z,9.90
2019-04-16T06:27:03.707Z,12.67
2019-04-16T06:29:38.754Z,9.60
2019-04-16T06:32:12.199Z,15.13
2019-04-16T06:34:58.153Z,14.80
2019-04-16T06:37:45.600Z,14.13
2019-04-16T06:40:32.621Z,10.37
2019-04-16T06:43:14.420Z,11.37
2019-04-16T06:45:53.107Z,12.50
2019-04-16T06:48:22.985Z,12.67
2019-04-16T06:51:11.704Z,13.93
2019-04-16T06:53:42.821Z,9.00
2019-04-16T06:56:20.250Z,10.47
2019-04-16T06:58:51.749Z,10.73
2019-04-16T07:01:27.400Z,10.43
2019-04-16T07:04:00.234Z,11.00
2019-04-16T07:06:37.065Z,11.77
2019-04-16T07:09:26.526Z,15.03
2019-04-16T07:11:56.495Z,12.30
2019-04-16T07:14:24.541Z,12.33
2019-04-16T07:16:52.595Z,10.03
2019-04-16T07:19:20.647Z,10.17
2019-04-16T07:21:49.763Z,13.17
2019-04-16T07:24:18.147Z,13.00
2019-04-16T07:26:48.077Z,11.77
2019-04-16T07:29:37.590Z,12.80
2019-04-16T07:32:13.024Z,13.30
2019-04-16T07:34:42.814Z,10.03
2019-04-16T07:37:32.839Z,11.00
2019-04-16T07:40:08.906Z,11.27
2019-04-16T07:42:51.767Z,11.53
2019-04-16T07:45:17.561Z,14.17
2019-04-16T07:48:06.089Z,10.47
2019-04-16T07:50:40.802Z,11.30
2019-04-16T07:53:13.523Z,11.13
2019-04-16T07:55:50.975Z,12.37
2019-04-16T07:58:19.022Z,11.80
2019-04-16T08:00:47.079Z,13.37
2019-04-16T08:03:15.136Z,12.30
2019-04-16T08:05:43.183Z,13.30
2019-04-16T08:08:11.223Z,11.33
2019-04-16T08:10:39.262Z,14.30
2019-04-16T08:13:08.954Z,10.77
2019-04-16T08:15:37.170Z,10.50
2019-04-16T08:18:05.214Z,11.13
2019-04-16T08:20:33.293Z,13.47
2019-04-16T08:23:02.976Z,15.03
2019-04-16T08:25:34.054Z,11.80
2019-04-16T08:28:00.913Z,11.47
2019-04-16T08:30:34.541Z,13.37
2019-04-16T08:32:59.514Z,12.17
2019-04-16T08:35:27.559Z,12.87
2019-04-16T08:37:58.173Z,15.07
2019-04-16T08:40:25.406Z,13.40
2019-04-16T08:42:57.005Z,10.97
2019-04-16T08:45:23.223Z,10.77
2019-04-16T08:47:51.266Z,12.67
2019-04-16T08:50:19.333Z,13.90
2019-04-16T08:52:47.624Z,12.90
2019-04-16T08:55:15.682Z,14.17
2019-04-16T08:57:46.728Z,12.30
2019-04-16T09:00:15.417Z,11.87
2019-04-16T09:02:43.554Z,13.17
2019-04-16T09:05:11.893Z,11.87
2019-04-16T09:07:40.286Z,10.63
2019-04-16T09:10:18.032Z,12.70
2019-04-16T09:12:44.960Z,14.47
2019-04-16T09:15:12.279Z,12.47
2019-04-16T09:17:42.189Z,16.33
2019-04-16T09:20:11.893Z,12.13
2019-04-16T09:22:48.822Z,13.43
2019-04-16T09:25:23.195Z,12.33
2019-04-16T09:28:01.911Z,12.50
2019-04-16T09:30:49.820Z,10.37
2019-04-16T09:33:36.251Z,16.50
2019-04-16T09:36:06.047Z,12.37
2019-04-16T09:38:35.729Z,13.57
2019-04-16T09:41:05.453Z,12.63
2019-04-16T09:43:40.324Z,11.30
2019-04-16T09:46:10.545Z,13.80
2019-04-16T09:48:37.423Z,13.20
2019-04-16T09:51:05.478Z,17.80
2019-04-16T09:53:37.511Z,12.63
2019-04-16T09:56:23.016Z,12.70
2019-04-16T09:58:50.985Z,14.23
2019-04-16T10:01:19.516Z,16.30
2019-04-16T10:03:49.203Z,15.23
2019-04-16T10:06:17.246Z,13.30
2019-04-16T10:08:45.686Z,15.87
2019-04-16T10:11:13.853Z,17.67
2019-04-16T10:13:41.898Z,13.33
2019-04-16T10:16:10.012Z,14.07
2019-04-16T10:18:38.062Z,12.67
2019-04-16T10:21:06.145Z,12.20
2019-04-16T10:23:54.206Z,12.00
2019-04-16T10:26:22.356Z,16.33
2019-04-16T10:28:50.452Z,15.03
2019-04-16T10:31:20.169Z,13.50
2019-04-16T10:33:48.192Z,13.37
2019-04-16T10:36:16.272Z,11.20
2019-04-16T10:39:01.172Z,12.53
2019-04-16T10:41:36.620Z,12.60
2019-04-16T10:44:21.158Z,14.17
2019-04-16T10:47:07.235Z,11.73
2019-04-16T10:49:39.585Z,14.20
2019-04-16T10:52:22.407Z,11.20
2019-04-16T10:54:54.965Z,10.97
2019-04-16T10:57:39.581Z,13.73
2019-04-16T11:00:19.127Z,10.00
2019-04-16T11:02:49.525Z,9.13
2019-04-16T11:05:25.333Z,8.63
2019-04-16T11:07:55.043Z,9.70
2019-04-16T11:10:23.194Z,10.63
2019-04-16T11:12:51.265Z,11.03
2019-04-16T11:15:20.975Z,9.63
2019-04-16T11:17:49.112Z,9.23
2019-04-16T11:20:17.180Z,9.87
2019-04-16T11:22:45.230Z,8.40
2019-04-16T11:25:13.386Z,10.87
2019-04-16T11:27:41.508Z,10.43
2019-04-16T11:30:11.344Z,10.17
2019-04-16T11:32:40.229Z,8.87
2019-04-16T11:35:08.512Z,9.20
2019-04-16T11:37:36.625Z,9.73
2019-04-16T11:40:05.608Z,9.00
2019-04-16T11:42:33.695Z,10.10
2019-04-16T11:45:01.762Z,9.20
2019-04-16T11:47:33.797Z,9.90
2019-04-16T11:49:59.582Z,7.77
2019-04-16T11:52:27.634Z,6.97
2019-04-16T11:54:55.677Z,8.83
2019-04-16T11:57:23.723Z,9.73
2019-04-16T12:00:06.074Z,7.50
2019-04-16T12:02:26.285Z,7.40
2019-04-16T12:05:04.748Z,11.67
2019-04-16T12:07:46.822Z,10.30
2019-04-16T12:10:18.251Z,8.77
2019-04-16T12:12:50.806Z,8.80
2019-04-16T12:15:23.182Z,8.10
2019-04-16T12:18:04.778Z,8.07
2019-04-16T12:20:49.390Z,9.50
2019-04-16T12:23:33.877Z,10.73
2019-04-16T12:26:19.838Z,10.00
2019-04-16T12:28:58.255Z,11.00
2019-04-16T12:31:30.739Z,11.20
2019-04-16T12:34:12.999Z,10.07
2019-04-16T12:36:51.688Z,11.37
2019-04-16T12:39:37.609Z,8.23
2019-04-16T12:42:10.553Z,8.77
2019-04-16T12:44:45.647Z,11.77
2019-04-16T12:47:14.574Z,9.73
2019-04-16T12:49:50.311Z,8.90
2019-04-16T12:52:28.930Z,10.00
2019-04-16T12:55:15.007Z,9.67
2019-04-16T12:57:53.703Z,14.47
2019-04-16T13:00:38.206Z,11.27
2019-04-16T13:03:13.654Z,9.43
2019-04-16T13:05:44.604Z,10.90
2019-04-16T13:08:16.566Z,12.37
2019-04-16T13:11:02.532Z,12.83
2019-04-16T13:13:48.333Z,13.67
2019-04-16T13:16:35.959Z,10.37
2019-04-16T13:19:08.294Z,13.23
2019-04-16T13:21:40.774Z,13.63
2019-04-16T13:24:16.232Z,10.57
2019-04-16T13:26:54.738Z,14.40
2019-04-16T13:29:29.083Z,13.17
2019-04-16T13:31:53.354Z,18.27
2019-04-16T13:34:21.435Z,15.17
2019-04-16T13:36:51.748Z,13.80
2019-04-16T13:39:20.950Z,13.70
2019-04-16T13:41:49.065Z,13.47
2019-04-16T13:44:24.778Z,13.93
2019-04-16T13:46:52.896Z,15.13
2019-04-16T13:49:24.444Z,14.17
2019-04-16T13:51:52.375Z,19.07
2019-04-16T13:54:22.063Z,16.17
2019-04-16T13:56:51.825Z,18.23
2019-04-16T13:59:37.950Z,15.00
2019-04-16T14:02:10.686Z,14.30
2019-04-16T14:04:38.741Z,17.53
2019-04-16T14:07:06.790Z,12.40
2019-04-16T14:09:34.866Z,16.17
2019-04-16T14:12:03.231Z,19.87
2019-04-16T14:14:31.266Z,14.67
2019-04-16T14:17:08.211Z,12.37
2019-04-16T14:19:29.094Z,13.47
2019-04-16T14:21:57.134Z,13.37
2019-04-16T14:24:25.194Z,10.73
2019-04-16T14:26:53.246Z,10.87
2019-04-16T14:29:24.894Z,14.63
2019-04-16T14:31:52.194Z,9.93
2019-04-16T14:34:24.930Z,10.67
2019-04-16T14:36:53.188Z,8.30
2019-04-16T14:39:30.454Z,10.27
2019-04-16T14:41:58.696Z,13.67
2019-04-16T14:44:28.341Z,7.73
2019-04-16T14:47:00.112Z,9.70
2019-04-16T14:49:26.159Z,11.10
2019-04-16T14:51:54.234Z,10.00
2019-04-16T14:54:23.913Z,10.90
2019-04-16T14:56:53.618Z,11.37
2019-04-16T14:59:35.653Z,9.90
2019-04-16T15:02:21.665Z,10.23
2019-04-16T15:04:58.239Z,11.80
2019-04-16T15:07:28.059Z,9.47
2019-04-16T15:10:02.489Z,12.30
2019-04-16T15:12:34.840Z,9.83
2019-04-16T15:15:03.243Z,10.33
2019-04-16T15:17:38.935Z,10.00
2019-04-16T15:20:23.519Z,9.40
2019-04-16T15:22:58.947Z,8.87
2019-04-16T15:25:28.625Z,13.60
2019-04-16T15:28:14.340Z,17.27
2019-04-16T15:31:02.573Z,12.97
2019-04-16T15:33:39.048Z,11.00
2019-04-16T15:36:08.983Z,13.97
2019-04-16T15:38:38.662Z,13.93
2019-04-16T15:41:23.142Z,12.73
2019-04-16T15:43:55.751Z,9.37
2019-04-16T15:46:41.348Z,11.47
2019-04-16T15:49:14.371Z,11.70
2019-04-16T15:51:50.635Z,14.70
2019-04-16T15:54:34.978Z,11.30
2019-04-16T15:57:21.006Z,12.07
2019-04-16T16:00:03.022Z,13.27
2019-04-16T16:02:38.703Z,10.43
2019-04-16T16:05:11.387Z,13.33
2019-04-16T16:07:41.146Z,10.63
2019-04-16T16:10:14.257Z,11.17
2019-04-16T16:12:42.324Z,11.73
2019-04-16T16:15:10.804Z,10.77
2019-04-16T16:17:38.859Z,11.23
2019-04-16T16:20:10.296Z,13.63
2019-04-16T16:22:37.183Z,11.57
2019-04-16T16:25:06.512Z,14.23
2019-04-16T16:27:34.651Z,14.03
2019-04-16T16:30:02.879Z,14.30
2019-04-16T16:32:31.050Z,13.60
2019-04-16T16:34:59.361Z,13.30
2019-04-16T16:37:27.451Z,17.70
2019-04-16T16:39:55.513Z,15.37
2019-04-16T16:42:23.558Z,14.63
2019-04-16T16:44:51.606Z,15.33
2019-04-16T16:47:21.293Z,14.70
2019-04-16T16:49:49.440Z,13.57
2019-04-16T16:52:31.058Z,16.07
2019-04-16T16:55:00.876Z,14.67
2019-04-16T16:57:30.562Z,13.33
2019-04-16T17:00:03.215Z,14.27
2019-04-16T17:02:35.642Z,20.87
2019-04-16T17:05:06.342Z,14.90
2019-04-16T17:07:34.398Z,15.50
2019-04-16T17:10:02.553Z,15.33
2019-04-16T17:12:30.611Z,12.63
2019-04-16T17:14:58.675Z,15.07
2019-04-16T17:17:26.855Z,15.87
2019-04-16T17:19:54.911Z,17.90
2019-04-16T17:22:23.009Z,16.03
2019-04-16T17:24:51.070Z,14.90
2019-04-16T17:27:19.111Z,11.80
2019-04-16T17:29:49.862Z,16.37
2019-04-16T17:32:17.183Z,13.33
2019-04-16T17:34:45.274Z,16.53
2019-04-16T17:37:13.334Z,16.67
2019-04-16T17:39:45.663Z,16.00
2019-04-16T17:42:15.366Z,14.30
2019-04-16T17:44:51.152Z,16.20
2019-04-16T17:47:32.537Z,18.47
2019-04-16T17:50:02.565Z,19.63
2019-04-16T17:52:32.207Z,17.23
2019-04-16T17:55:04.804Z,17.00
2019-04-16T17:57:35.290Z,16.60
2019-04-16T18:00:21.130Z,14.53
2019-04-16T18:02:56.947Z,15.00
2019-04-16T18:05:29.447Z,14.77
2019-04-16T18:08:08.433Z,16.43
2019-04-16T18:10:40.886Z,14.90
2019-04-16T18:13:10.578Z,13.37
2019-04-16T18:15:52.414Z,14.57
2019-04-16T18:18:22.169Z,16.17
2019-04-16T18:21:07.896Z,18.23
2019-04-16T18:23:52.545Z,14.87
2019-04-16T18:26:34.420Z,13.87
2019-04-16T18:29:07.890Z,15.83
2019-04-16T18:31:43.556Z,11.23
2019-04-16T18:34:25.182Z,9.13
2019-04-16T18:37:10.931Z,8.13
2019-04-16T18:39:46.431Z,8.03
2019-04-16T18:42:16.152Z,6.77
2019-04-16T18:44:45.847Z,7.90
2019-04-16T18:47:15.530Z,6.43
2019-04-16T18:49:44.662Z,4.87
2019-04-16T18:52:12.732Z,7.47
2019-04-16T18:54:40.824Z,5.63
2019-04-16T18:57:08.970Z,4.07
2019-04-16T18:59:37.545Z,4.70
2019-04-16T19:02:09.696Z,3.83
2019-04-16T19:04:37.927Z,4.20
2019-04-16T19:07:06.168Z,5.33
2019-04-16T19:09:34.314Z,3.33
2019-04-16T19:12:02.465Z,3.90
2019-04-16T19:14:30.710Z,3.60
2019-04-16T19:16:58.761Z,3.57
2019-04-16T19:19:26.819Z,3.67
2019-04-16T19:21:54.972Z,3.30
2019-04-16T19:24:23.099Z,2.97
2019-04-16T19:26:51.138Z,4.40
2019-04-16T19:29:20.176Z,3.70
2019-04-16T19:31:48.347Z,3.87
2019-04-16T19:34:16.460Z,3.07
2019-04-16T19:36:44.774Z,3.17
2019-04-16T19:39:15.181Z,5.90
2019-04-16T19:41:42.661Z,5.20
2019-04-16T19:44:10.738Z,4.30
2019-04-16T19:46:38.809Z,3.60
2019-04-16T19:49:06.919Z,3.40
2019-04-16T19:51:38.036Z,3.27
2019-04-16T19:54:04.795Z,4.10
2019-04-16T19:56:33.587Z,3.27
2019-04-16T19:59:01.931Z,2.83
2019-04-16T20:01:30.674Z,2.57
2019-04-16T20:03:58.781Z,3.47
2019-04-16T20:06:26.834Z,3.00
2019-04-16T20:08:54.963Z,2.70
2019-04-16T20:11:23.560Z,2.23
2019-04-16T20:13:51.600Z,4.63
2019-04-16T20:16:19.658Z,3.17
2019-04-16T20:18:51.175Z,3.47
2019-04-16T20:21:17.481Z,3.80
2019-04-16T20:23:45.540Z,2.80
2019-04-16T20:26:13.658Z,4.17
2019-04-16T20:28:41.693Z,4.47
2019-04-16T20:31:09.768Z,4.97
2019-04-16T20:33:37.838Z,3.03
2019-04-16T20:36:05.899Z,2.87
2019-04-16T20:38:33.934Z,2.93
2019-04-16T20:41:01.988Z,3.27
2019-04-16T20:43:30.040Z,5.00
2019-04-16T20:45:58.080Z,3.50
2019-04-16T20:48:26.130Z,3.70
2019-04-16T20:50:58.652Z,3.73
2019-04-16T20:53:24.015Z,3.97
2019-04-16T20:55:52.791Z,2.50
2019-04-16T20:58:20.853Z,4.60
2019-04-16T21:00:50.567Z,2.93
2019-04-16T21:03:22.255Z,2.50
2019-04-16T21:05:57.816Z,2.43
2019-04-16T21:08:24.153Z,2.53
2019-04-16T21:10:48.210Z,2.10
2019-04-16T21:13:16.868Z,2.30
2019-04-16T21:15:44.938Z,1.77
2019-04-16T21:18:13.029Z,1.60
2019-04-16T21:20:41.166Z,2.60
2019-04-16T21:23:09.227Z,2.90
2019-04-16T21:25:37.393Z,3.77
2019-04-16T21:28:23.007Z,3.20
2019-04-16T21:30:52.687Z,1.93
2019-04-16T21:33:31.563Z,2.23
2019-04-16T21:36:04.798Z,2.43
2019-04-16T21:38:32.655Z,2.67
2019-04-16T21:41:00.881Z,1.90
2019-04-16T21:43:28.927Z,4.90
2019-04-16T21:45:57.163Z,1.87
2019-04-16T21:48:26.791Z,1.70
2019-04-16T21:50:55.427Z,4.77
2019-04-16T21:53:24.544Z,2.73
2019-04-16T21:55:53.213Z,2.10
2019-04-16T21:58:21.274Z,3.07
2019-04-16T22:00:51.018Z,2.53
2019-04-16T22:03:20.918Z,2.20
2019-04-16T22:05:49.058Z,2.33
2019-04-16T22:08:17.191Z,2.03
2019-04-16T22:10:46.663Z,2.93
2019-04-16T22:13:19.107Z,1.73
2019-04-16T22:15:45.990Z,2.50
2019-04-16T22:18:14.026Z,2.10
2019-04-16T22:20:42.098Z,2.17
2019-04-16T22:23:10.128Z,3.50
2019-04-16T22:25:38.173Z,2.80
2019-04-16T22:28:11.593Z,2.87
2019-04-16T22:30:36.003Z,1.87
2019-04-16T22:33:06.715Z,1.70
2019-04-16T22:35:33.909Z,2.03
2019-04-16T22:38:02.323Z,1.60
2019-04-16T22:40:37.834Z,1.97
2019-04-16T22:43:23.840Z,2.07
2019-04-16T22:45:53.517Z,3.23
2019-04-16T22:48:21.574Z,2.07
2019-04-16T22:50:49.688Z,3.07
2019-04-16T22:53:17.977Z,2.40
2019-04-16T22:55:46.242Z,2.97
2019-04-16T22:58:23.831Z,2.33
2019-04-16T23:00:53.420Z,2.20
2019-04-16T23:03:21.471Z,3.13
2019-04-16T23:05:49.585Z,1.97
2019-04-16T23:08:17.642Z,2.37
2019-04-16T23:10:45.690Z,2.10
2019-04-16T23:13:13.738Z,1.87
2019-04-16T23:15:42.346Z,2.77
2019-04-16T23:18:10.471Z,1.77
2019-04-16T23:20:40.190Z,2.00
2019-04-16T23:23:08.537Z,1.93
2019-04-16T23:25:36.731Z,1.73
2019-04-16T23:28:09.401Z,2.53
2019-04-16T23:30:34.622Z,1.67
2019-04-16T23:33:02.682Z,1.27
2019-04-16T23:35:30.724Z,1.47
2019-04-16T23:38:00.644Z,1.60
2019-04-16T23:40:28.532Z,1.53
2019-04-16T23:43:14.641Z,1.63
2019-04-16T23:46:01.389Z,1.23
2019-04-16T23:48:32.014Z,2.70
2019-04-16T23:51:04.711Z,1.20
2019-04-16T23:53:34.411Z,1.57
2019-04-16T23:56:10.114Z,1.30
2019-04-16T23:58:42.824Z,1.10
